Pagina principală
METAR-TAF:

METAR-TAF

Aeroporturi :

Elkhart-Morton County Airport

Elkhart, Kansas, Statele Unite ale Americii

Latitudine: 37-00N, longitudine: 101-54W, elevație: 1099 m

Observații meteo curente

Raportul a fost făcut în urmă cu 26 de minute, la 00:35 UTC
Vânt 13 kt de la Est/Sud-est
Temperatură 24°C
Umiditate 29%
Presiune 1009 hPa
Vizibilitate: 16.1 km
Cer senin

METAR: KEHA 220035Z AUTO 12013KT 10SM CLR 24/05 A2980 RMK AO2 T02420049

Ora: 20:01 (01:01 UTC)


TAF: lipsă

Observații și prognoze meteo pentru peste 4.000 de aeroporturi (rapoarte METAR și TAF).

Stațiile disponibile sunt reprezentate pe hartă prin puncte galbene și roșii.

Țineți indicatorul mouse-ului pe punctul dorit pentru a vedea denumirea stației.

Apoi, faceți clic pentru a vedea observațiile și prognozele meteorologice.

Pentru a schimba harta: Pentru mărire, faceți clic pe butoanele verzi cu cruce neagră; pentru micșorare, pe butonul verde cu o liniuță; pentru hărți învecinate, pe săgețile verzi.


METAR-TAF: